Vega Bulk — 3FYI4 — position and weather

sailwx.info

Track history (hours):
 
Tides and Currents Weather Stations Pressure Air Temp Water Temp Dewpoint Dewpoint Depression Visibility Wind Speed Wind Dir Waves Ship Positions

Vega Bulk

Last reported at 2018-Feb-22 02:43 UTC. Time now 2018-Feb-22 20:34 UTC.
Position N 39°23' W 009°43'.

Length 84 m; draft 3.2 m.

Type: Ship. MMSI: 354187000.

Date/timePositionNaut miles runAvg speedWind from/ knotsBaromVisibWave heightAir tempDewpointWater temp
2018-Feb-22 02:43N 39°23' W 009°43'2 7.5
2018-Feb-22 02:30N 39°21' W 009°44'4 7.5
2018-Feb-22 01:59N 39°18' W 009°44'4 7.4
2018-Feb-22 01:30N 39°14' W 009°45'4 7.3
2018-Feb-22 01:00N 39°10' W 009°46'4 7.4
2018-Feb-22 00:30N 39°07' W 009°47'4 7.1
2018-Feb-22 00:00N 39°03' W 009°48'3 6.9
2018-Feb-21 23:30N 39°00' W 009°49'4 7.0
2018-Feb-21 23:00N 38°57' W 009°50'3 6.8
2018-Feb-21 22:30N 38°53' W 009°51'3 6.8
2018-Feb-21 22:00N 38°50' W 009°51'3 6.8
2018-Feb-21 21:30N 38°46' W 009°51'3 6.7
2018-Feb-21 20:59N 38°43' W 009°51'3 7.1
2018-Feb-21 20:30N 38°40' W 009°51'4 7.0
2018-Feb-21 20:00N 38°36' W 009°51'4 7.0
2018-Feb-21 19:27N 38°32' W 009°52'3 6.8
2018-Feb-21 18:56N 38°29' W 009°52'4 6.6
2018-Feb-21 18:24N 38°25' W 009°53'9 6.5
2018-Feb-21 17:03N 38°16' W 009°53'1 6.5
2018-Feb-21 16:55N 38°16' W 009°53'3 6.8
2018-Feb-21 16:25N 38°12' W 009°54'3 7.0
2018-Feb-21 15:58N 38°09' W 009°55'4 6.9
2018-Feb-21 15:27N 38°06' W 009°56'3 6.8
2018-Feb-21 15:00N 38°03' W 009°56'  
2018-Feb-18 01:14N 28°51' W 015°03'7 8.4
2018-Feb-18 00:27N 28°45' W 015°06'4 8.3
2018-Feb-18 00:00N 28°42' W 015°07'4 8.1
2018-Feb-17 23:30N 28°38' W 015°09'4 8.1
2018-Feb-17 23:00N 28°34' W 015°11'4 8.3
2018-Feb-17 22:30N 28°30' W 015°13'4 8.2
2018-Feb-17 22:00N 28°27' W 015°14'4 8.2
2018-Feb-17 21:30N 28°23' W 015°16'4 8.1
2018-Feb-17 21:00N 28°19' W 015°18'4 8.2
2018-Feb-17 20:30N 28°15' W 015°19'4 8.2
2018-Feb-17 20:00N 28°11' W 015°21'4 8.3
2018-Feb-17 19:30N 28°07' W 015°23'2 2.6
2018-Feb-17 18:47N 28°08' W 015°24'0 0.0
2018-Feb-17 18:17N 28°08' W 015°24'0 0.0
2018-Feb-17 17:59N 28°08' W 015°24'0 0.0
2018-Feb-17 17:29N 28°08' W 015°24'0 0.0
2018-Feb-17 16:59N 28°08' W 015°24'0 0.0
2018-Feb-17 16:29N 28°08' W 015°24'0 0.0
2018-Feb-17 15:53N 28°08' W 015°24'0 0.0
2018-Feb-17 15:23N 28°08' W 015°24'0 0.0
2018-Feb-17 14:47N 28°08' W 015°24'0 0.0
2018-Feb-17 14:11N 28°08' W 015°24'0 0.0
2018-Feb-17 13:59N 28°08' W 015°24'0 0.0
2018-Feb-17 13:17N 28°08' W 015°24'0 0.0
2018-Feb-17 12:41N 28°08' W 015°24'0 0.0
2018-Feb-17 12:23N 28°08' W 015°24'0 0.0
2018-Feb-17 11:53N 28°08' W 015°24'0 0.0
2018-Feb-17 11:29N 28°08' W 015°24'0 0.0
2018-Feb-17 10:59N 28°08' W 015°24'0 0.0
2018-Feb-17 10:17N 28°08' W 015°24'0 0.0
2018-Feb-17 09:59N 28°08' W 015°24'0 0.0
2018-Feb-17 08:35N 28°08' W 015°24'0 0.0
2018-Feb-17 08:23N 28°08' W 015°24'0 0.0
2018-Feb-17 07:47N 28°08' W 015°24'0 0.0
2018-Feb-17 07:29N 28°08' W 015°24'0 0.0
2018-Feb-17 06:59N 28°08' W 015°24'0 0.0
2018-Feb-17 06:23N 28°08' W 015°24'0 0.0
2018-Feb-17 05:53N 28°08' W 015°24'0 0.0
2018-Feb-17 05:29N 28°08' W 015°24'0 0.0
2018-Feb-17 04:59N 28°08' W 015°24'0 0.0
2018-Feb-17 04:17N 28°08' W 015°24'0 0.0
2018-Feb-17 03:59N 28°08' W 015°24'0 0.0
2018-Feb-17 03:23N 28°08' W 015°24'0 0.0
2018-Feb-17 02:23N 28°08' W 015°24'0 0.0
2018-Feb-17 01:59N 28°08' W 015°24'0 0.0
2018-Feb-17 01:29N 28°08' W 015°24'0 0.0
2018-Feb-17 00:53N 28°08' W 015°24'0 0.0
2018-Feb-17 00:11N 28°08' W 015°24'0 0.0
2018-Feb-16 23:53N 28°08' W 015°24'0 0.0
2018-Feb-16 23:29N 28°08' W 015°24'0 0.0
2018-Feb-16 22:29N 28°08' W 015°24'0 0.0
2018-Feb-16 21:59N 28°08' W 015°24'0 0.0
2018-Feb-16 21:29N 28°08' W 015°24'0 0.0
2018-Feb-16 20:59N 28°08' W 015°24'0 0.0
2018-Feb-16 20:17N 28°08' W 015°24'0 0.0
2018-Feb-16 19:59N 28°08' W 015°24'0 0.0
2018-Feb-16 19:29N 28°08' W 015°24'0 0.0
2018-Feb-16 17:29N 28°08' W 015°24'0 0.0
2018-Feb-16 16:11N 28°08' W 015°24'0 0.0
2018-Feb-16 15:53N 28°08' W 015°24'0 0.0
2018-Feb-16 15:23N 28°08' W 015°24'0 0.0
2018-Feb-16 14:41N 28°08' W 015°24'0 0.0
2018-Feb-16 14:23N 28°08' W 015°24'0 0.0
2018-Feb-16 13:59N 28°08' W 015°24'0 0.0
2018-Feb-16 13:17N 28°08' W 015°24'0 0.0
2018-Feb-16 12:59N 28°08' W 015°24'0 0.0
2018-Feb-16 12:29N 28°08' W 015°24'0 0.0
2018-Feb-16 11:59N 28°08' W 015°24'0 0.0
2018-Feb-16 11:11N 28°08' W 015°24'0 0.0
2018-Feb-16 10:41N 28°08' W 015°24'0 0.0
2018-Feb-16 10:11N 28°08' W 015°24'0 0.0
2018-Feb-16 09:53N 28°08' W 015°24'0 0.0
2018-Feb-16 09:29N 28°08' W 015°24'0 0.0
2018-Feb-16 08:53N 28°08' W 015°24'0 0.0
2018-Feb-16 08:17N 28°08' W 015°24'0 0.0
2018-Feb-16 07:59N 28°08' W 015°24'0 0.0
2018-Feb-16 07:29N 28°08' W 015°24'0 0.0
2018-Feb-16 06:59N 28°08' W 015°24'0 0.0
2018-Feb-16 06:29N 28°08' W 015°24'0 0.0
2018-Feb-16 05:59N 28°08' W 015°24'0 0.0
2018-Feb-16 05:29N 28°08' W 015°24'0 0.0
2018-Feb-16 04:53N 28°08' W 015°24'0 0.0
2018-Feb-16 04:11N 28°08' W 015°24'0 0.0
2018-Feb-16 03:53N 28°08' W 015°24'0 0.0
2018-Feb-16 03:11N 28°08' W 015°24'0 0.0
2018-Feb-16 02:59N 28°08' W 015°24'0 0.0
2018-Feb-16 02:29N 28°08' W 015°24'0 0.0
2018-Feb-16 01:53N 28°08' W 015°24'0 0.0
2018-Feb-16 01:29N 28°08' W 015°24'0 0.0
2018-Feb-16 00:53N 28°08' W 015°24'0 0.0
2018-Feb-16 00:29N 28°08' W 015°24'0 0.0
2018-Feb-15 23:59N 28°08' W 015°24'0 0.0
2018-Feb-15 23:05N 28°08' W 015°24'0 0.1
2018-Feb-15 22:59N 28°08' W 015°24'0 0.0
2018-Feb-15 22:17N 28°08' W 015°24'0 0.0
2018-Feb-15 21:59N 28°08' W 015°24'0 0.0
2018-Feb-15 21:23N 28°08' W 015°24'0 0.0
2018-Feb-15 20:47N 28°08' W 015°24'0 0.0
2018-Feb-15 20:29N 28°08' W 015°24'0 0.0
2018-Feb-15 19:41N 28°08' W 015°24'0 0.0
2018-Feb-15 19:29N 28°08' W 015°24'0 0.0
2018-Feb-15 18:35N 28°08' W 015°24'0 0.1
2018-Feb-15 18:29N 28°08' W 015°24'0 0.0
2018-Feb-15 17:59N 28°08' W 015°24'0 0.0
2018-Feb-15 17:05N 28°08' W 015°24'0 0.0
2018-Feb-15 16:59N 28°08' W 015°24'0 0.0
2018-Feb-15 16:23N 28°08' W 015°24'0 0.0
2018-Feb-15 15:53N 28°08' W 015°24'0 0.0
2018-Feb-15 15:29N 28°08' W 015°24'0 0.0
2018-Feb-15 14:59N 28°08' W 015°24'0 0.0
2018-Feb-15 13:53N 28°08' W 015°24'0 0.0
2018-Feb-15 12:53N 28°08' W 015°24'0 0.0
2018-Feb-15 12:11N 28°08' W 015°24'0 0.0
2018-Feb-15 11:59N 28°08' W 015°24'0 0.0
2018-Feb-15 11:23N 28°08' W 015°24'0 0.0
2018-Feb-15 10:59N 28°08' W 015°24'0 0.0
2018-Feb-15 09:35N 28°08' W 015°24'0 0.0
2018-Feb-15 09:23N 28°08' W 015°24'0 0.0
2018-Feb-15 08:59N 28°08' W 015°24'0 0.0
2018-Feb-15 07:23N 28°08' W 015°24'0 0.0
2018-Feb-15 06:53N 28°08' W 015°24'0 0.0
2018-Feb-15 06:23N 28°08' W 015°24'0 0.0
2018-Feb-15 05:59N 28°08' W 015°24'0 0.0
2018-Feb-15 05:29N 28°08' W 015°24'0 0.0
2018-Feb-15 04:53N 28°08' W 015°24'0 0.0
2018-Feb-15 04:29N 28°08' W 015°24'0 0.0
2018-Feb-15 03:59N 28°08' W 015°24'0 0.0
2018-Feb-15 03:29N 28°08' W 015°24'0 0.0
2018-Feb-15 02:59N 28°08' W 015°24'0 0.0
2018-Feb-15 02:05N 28°08' W 015°24'0 0.0
2018-Feb-15 01:05N 28°08' W 015°24'0 0.0
2018-Feb-15 00:53N 28°08' W 015°24'0 0.0
2018-Feb-15 00:17N 28°08' W 015°24'0 0.0
2018-Feb-14 23:59N 28°08' W 015°24'0 0.0
2018-Feb-14 23:29N 28°08' W 015°24'0 0.0
2018-Feb-14 22:47N 28°08' W 015°24'0 0.0
2018-Feb-14 22:23N 28°08' W 015°24'0 0.0
2018-Feb-14 21:53N 28°08' W 015°24'0 0.0
2018-Feb-14 21:29N 28°08' W 015°24'0 0.0
2018-Feb-14 20:59N 28°08' W 015°24'0 0.0
2018-Feb-14 20:23N 28°08' W 015°24'0 0.0
2018-Feb-14 19:47N 28°08' W 015°24'0 0.0
2018-Feb-14 18:53N 28°08' W 015°24'0 0.0
2018-Feb-14 18:23N 28°08' W 015°24'0 0.0
2018-Feb-14 17:59N 28°08' W 015°24'0 0.0
2018-Feb-14 17:23N 28°08' W 015°24'0 0.0
2018-Feb-14 16:47N 28°08' W 015°24'0 0.0
2018-Feb-14 16:29N 28°08' W 015°24'0 0.0
2018-Feb-14 15:53N 28°08' W 015°24'0 0.0
2018-Feb-14 15:23N 28°08' W 015°24'0 0.0
2018-Feb-14 14:59N 28°08' W 015°24'0 0.0
2018-Feb-14 14:29N 28°08' W 015°24'0 0.0
2018-Feb-14 13:59N 28°08' W 015°24'0 0.0
2018-Feb-14 12:47N 28°08' W 015°24'0 0.0
2018-Feb-14 12:23N 28°08' W 015°24'0 0.0
2018-Feb-14 11:53N 28°08' W 015°24'0 0.0
2018-Feb-14 11:29N 28°08' W 015°24'0 0.0
2018-Feb-14 10:47N 28°08' W 015°24'0 0.0
2018-Feb-14 10:23N 28°08' W 015°24'0 0.0
2018-Feb-14 09:41N 28°08' W 015°24'0 0.0
2018-Feb-14 09:29N 28°08' W 015°24'0 0.0
2018-Feb-14 08:47N 28°08' W 015°24'0 0.0
2018-Feb-14 08:29N 28°08' W 015°24'0 0.0
2018-Feb-14 06:11N 28°08' W 015°24'0 0.0
2018-Feb-14 05:59N 28°08' W 015°24'0 0.0
2018-Feb-14 05:11N 28°08' W 015°24'0 0.0
2018-Feb-14 04:59N 28°08' W 015°24'0 0.0
2018-Feb-14 04:29N 28°08' W 015°24'0 0.0
2018-Feb-14 03:53N 28°08' W 015°24'0 0.0
2018-Feb-14 03:29N 28°08' W 015°24'0 0.0
2018-Feb-14 02:59N 28°08' W 015°24'0 0.0
2018-Feb-14 02:29N 28°08' W 015°24'0 0.0
2018-Feb-14 01:59N 28°08' W 015°24'0 0.0
2018-Feb-14 00:47N 28°08' W 015°24'0 0.0
2018-Feb-14 00:23N 28°08' W 015°24'0 0.0
2018-Feb-13 23:59N 28°08' W 015°24'0 0.0
2018-Feb-13 23:05N 28°08' W 015°24'0 0.1
2018-Feb-13 22:59N 28°08' W 015°24'0 0.0
2018-Feb-13 22:05N 28°08' W 015°24'0 0.0
2018-Feb-13 21:05N 28°08' W 015°24'0 0.1
2018-Feb-13 20:59N 28°08' W 015°24'0 0.0
2018-Feb-13 20:11N 28°08' W 015°24'0 0.0
2018-Feb-13 19:59N 28°08' W 015°24'0 0.0
2018-Feb-13 19:23N 28°08' W 015°24'0 0.0
2018-Feb-13 18:47N 28°08' W 015°24'0 0.0
2018-Feb-13 18:17N 28°08' W 015°24'0 0.0
2018-Feb-13 17:47N 28°08' W 015°24'0 0.0
2018-Feb-13 17:29N 28°08' W 015°24'0 0.0
2018-Feb-13 16:59N 28°08' W 015°24'0 0.0
2018-Feb-13 16:17N 28°08' W 015°24'0 0.0
2018-Feb-13 15:53N 28°08' W 015°24'0 0.0
2018-Feb-13 15:17N 28°08' W 015°24'0 0.0
2018-Feb-13 14:53N 28°08' W 015°24'0 0.0
2018-Feb-13 14:17N 28°08' W 015°24'0 0.0
2018-Feb-13 13:41N 28°08' W 015°24'0 0.0
2018-Feb-13 13:29N 28°08' W 015°24'0 0.0
2018-Feb-13 12:59N 28°08' W 015°24'0 0.0
2018-Feb-13 12:23N 28°08' W 015°24'0 0.0
2018-Feb-13 11:53N 28°08' W 015°24'0 0.0
2018-Feb-13 11:29N 28°08' W 015°24'0 0.0
2018-Feb-13 10:59N 28°08' W 015°24'0 0.0
2018-Feb-13 09:59N 28°08' W 015°24'0 0.0
2018-Feb-13 09:29N 28°08' W 015°24'0 0.0
2018-Feb-13 08:59N 28°08' W 015°24'0 0.0
2018-Feb-13 08:29N 28°08' W 015°24'0 0.0
2018-Feb-13 07:59N 28°08' W 015°24'0 0.0
2018-Feb-13 07:29N 28°08' W 015°24'0 0.0
2018-Feb-13 06:59N 28°08' W 015°24'0 0.0
2018-Feb-13 06:29N 28°08' W 015°24'0 0.0
2018-Feb-13 05:59N 28°08' W 015°24'0 0.0
2018-Feb-13 05:29N 28°08' W 015°24'0 0.0
2018-Feb-13 04:59N 28°08' W 015°24'0 0.0
2018-Feb-13 04:29N 28°08' W 015°24'0 0.0
2018-Feb-13 03:59N 28°08' W 015°24'0 0.0
2018-Feb-13 03:29N 28°08' W 015°24'0 0.0
2018-Feb-13 02:59N 28°08' W 015°24'0 0.0
2018-Feb-13 02:29N 28°08' W 015°24'0 0.0
2018-Feb-13 01:59N 28°08' W 015°24'0 0.0
2018-Feb-13 01:29N 28°08' W 015°24'0 0.0
2018-Feb-13 00:59N 28°08' W 015°24'0 0.0
2018-Feb-13 00:29N 28°08' W 015°24'0 0.0
2018-Feb-12 23:59N 28°08' W 015°24'0 0.0
2018-Feb-12 23:29N 28°08' W 015°24'0 0.0
2018-Feb-12 22:59N 28°08' W 015°24'0 0.0
2018-Feb-12 22:29N 28°08' W 015°24'0 0.0
2018-Feb-12 21:59N 28°08' W 015°24'0 0.0
2018-Feb-12 21:29N 28°08' W 015°24'0 0.0
2018-Feb-12 20:59N 28°08' W 015°24'0 0.0
2018-Feb-12 20:29N 28°08' W 015°24'0 0.0
2018-Feb-12 19:59N 28°08' W 015°24'0 0.0
2018-Feb-12 19:29N 28°08' W 015°24'0 0.0
2018-Feb-12 18:59N 28°08' W 015°24'0 0.0
2018-Feb-12 18:29N 28°08' W 015°24'0 0.0
2018-Feb-12 17:59N 28°08' W 015°24'0 0.0
2018-Feb-12 17:29N 28°08' W 015°24'0 0.0
2018-Feb-12 16:59N 28°08' W 015°24'0 0.0
2018-Feb-12 16:29N 28°08' W 015°24'0 0.0
2018-Feb-12 15:53N 28°08' W 015°24'0 0.0
2018-Feb-12 15:17N 28°08' W 015°24'0 0.0
2018-Feb-12 14:59N 28°08' W 015°24'0 0.0
2018-Feb-12 14:29N 28°08' W 015°24'0 0.0
2018-Feb-12 13:59N 28°08' W 015°24'0 0.0
2018-Feb-12 13:23N 28°08' W 015°24'0 0.0
2018-Feb-12 12:59N 28°08' W 015°24'0 0.0
2018-Feb-12 12:29N 28°08' W 015°24'0 0.0
2018-Feb-12 11:47N 28°08' W 015°24'0 0.0
2018-Feb-12 10:47N 28°08' W 015°24'0 0.0
2018-Feb-12 10:23N 28°08' W 015°24'0 0.0
2018-Feb-12 09:53N 28°08' W 015°24'0 0.0
2018-Feb-12 09:23N 28°08' W 015°24'0 0.0
2018-Feb-12 08:05N 28°08' W 015°24'0 0.0
2018-Feb-12 07:47N 28°08' W 015°24'0 0.0
2018-Feb-12 07:29N 28°08' W 015°24'0 0.0
2018-Feb-12 06:35N 28°08' W 015°24'0 0.0
2018-Feb-12 06:29N 28°08' W 015°24'0 0.0
2018-Feb-12 05:53N 28°08' W 015°24'0 0.0
2018-Feb-12 05:29N 28°08' W 015°24'0 0.0
2018-Feb-12 04:59N 28°08' W 015°24'0 0.0
2018-Feb-12 04:23N 28°08' W 015°24'0 0.0
2018-Feb-12 03:59N 28°08' W 015°24'0 0.0
2018-Feb-12 02:59N 28°08' W 015°24'  
Track history (hours):
 
Tides and Currents Weather Stations Pressure Air Temp Water Temp Dewpoint Dewpoint Depression Visibility Wind Speed Wind Dir Waves Ship Positions

Vega Bulk

Last reported at 2018-Feb-22 02:43 UTC. Time now 2018-Feb-22 20:34 UTC.
Position N 39°23' W 009°43'.

Length 84 m; draft 3.2 m.

Type: Ship. MMSI: 354187000.

Date/timePositionNaut miles runAvg speedWind from/ knotsBaromVisibWave heightAir tempDewpointWater temp
2018-Feb-22 02:43N 39°23' W 009°43'2 7.5
2018-Feb-22 02:30N 39°21' W 009°44'4 7.5
2018-Feb-22 01:59N 39°18' W 009°44'4 7.4
2018-Feb-22 01:30N 39°14' W 009°45'4 7.3
2018-Feb-22 01:00N 39°10' W 009°46'4 7.4
2018-Feb-22 00:30N 39°07' W 009°47'4 7.1
2018-Feb-22 00:00N 39°03' W 009°48'3 6.9
2018-Feb-21 23:30N 39°00' W 009°49'4 7.0
2018-Feb-21 23:00N 38°57' W 009°50'3 6.8
2018-Feb-21 22:30N 38°53' W 009°51'3 6.8
2018-Feb-21 22:00N 38°50' W 009°51'3 6.8
2018-Feb-21 21:30N 38°46' W 009°51'3 6.7
2018-Feb-21 20:59N 38°43' W 009°51'3 7.1
2018-Feb-21 20:30N 38°40' W 009°51'4 7.0
2018-Feb-21 20:00N 38°36' W 009°51'4 7.0
2018-Feb-21 19:27N 38°32' W 009°52'3 6.8
2018-Feb-21 18:56N 38°29' W 009°52'4 6.6
2018-Feb-21 18:24N 38°25' W 009°53'9 6.5
2018-Feb-21 17:03N 38°16' W 009°53'1 6.5
2018-Feb-21 16:55N 38°16' W 009°53'3 6.8
2018-Feb-21 16:25N 38°12' W 009°54'3 7.0
2018-Feb-21 15:58N 38°09' W 009°55'4 6.9
2018-Feb-21 15:27N 38°06' W 009°56'3 6.8
2018-Feb-21 15:00N 38°03' W 009°56'  
2018-Feb-18 01:14N 28°51' W 015°03'7 8.4
2018-Feb-18 00:27N 28°45' W 015°06'4 8.3
2018-Feb-18 00:00N 28°42' W 015°07'4 8.1
2018-Feb-17 23:30N 28°38' W 015°09'4 8.1
2018-Feb-17 23:00N 28°34' W 015°11'4 8.3
2018-Feb-17 22:30N 28°30' W 015°13'4 8.2
2018-Feb-17 22:00N 28°27' W 015°14'4 8.2
2018-Feb-17 21:30N 28°23' W 015°16'4 8.1
2018-Feb-17 21:00N 28°19' W 015°18'4 8.2
2018-Feb-17 20:30N 28°15' W 015°19'4 8.2
2018-Feb-17 20:00N 28°11' W 015°21'4 8.3
2018-Feb-17 19:30N 28°07' W 015°23'2 2.6
2018-Feb-17 18:47N 28°08' W 015°24'0 0.0
2018-Feb-17 18:17N 28°08' W 015°24'0 0.0
2018-Feb-17 17:59N 28°08' W 015°24'0 0.0
2018-Feb-17 17:29N 28°08' W 015°24'0 0.0
2018-Feb-17 16:59N 28°08' W 015°24'0 0.0
2018-Feb-17 16:29N 28°08' W 015°24'0 0.0
2018-Feb-17 15:53N 28°08' W 015°24'0 0.0
2018-Feb-17 15:23N 28°08' W 015°24'0 0.0
2018-Feb-17 14:47N 28°08' W 015°24'0 0.0
2018-Feb-17 14:11N 28°08' W 015°24'0 0.0
2018-Feb-17 13:59N 28°08' W 015°24'0 0.0
2018-Feb-17 13:17N 28°08' W 015°24'0 0.0
2018-Feb-17 12:41N 28°08' W 015°24'0 0.0
2018-Feb-17 12:23N 28°08' W 015°24'0 0.0
2018-Feb-17 11:53N 28°08' W 015°24'0 0.0
2018-Feb-17 11:29N 28°08' W 015°24'0 0.0
2018-Feb-17 10:59N 28°08' W 015°24'0 0.0
2018-Feb-17 10:17N 28°08' W 015°24'0 0.0
2018-Feb-17 09:59N 28°08' W 015°24'0 0.0
2018-Feb-17 08:35N 28°08' W 015°24'0 0.0
2018-Feb-17 08:23N 28°08' W 015°24'0 0.0
2018-Feb-17 07:47N 28°08' W 015°24'0 0.0
2018-Feb-17 07:29N 28°08' W 015°24'0 0.0
2018-Feb-17 06:59N 28°08' W 015°24'0 0.0
2018-Feb-17 06:23N 28°08' W 015°24'0 0.0
2018-Feb-17 05:53N 28°08' W 015°24'0 0.0
2018-Feb-17 05:29N 28°08' W 015°24'0 0.0
2018-Feb-17 04:59N 28°08' W 015°24'0 0.0
2018-Feb-17 04:17N 28°08' W 015°24'0 0.0
2018-Feb-17 03:59N 28°08' W 015°24'0 0.0
2018-Feb-17 03:23N 28°08' W 015°24'0 0.0
2018-Feb-17 02:23N 28°08' W 015°24'0 0.0
2018-Feb-17 01:59N 28°08' W 015°24'0 0.0
2018-Feb-17 01:29N 28°08' W 015°24'0 0.0
2018-Feb-17 00:53N 28°08' W 015°24'0 0.0
2018-Feb-17 00:11N 28°08' W 015°24'0 0.0
2018-Feb-16 23:53N 28°08' W 015°24'0 0.0
2018-Feb-16 23:29N 28°08' W 015°24'0 0.0
2018-Feb-16 22:29N 28°08' W 015°24'0 0.0
2018-Feb-16 21:59N 28°08' W 015°24'0 0.0
2018-Feb-16 21:29N 28°08' W 015°24'0 0.0
2018-Feb-16 20:59N 28°08' W 015°24'0 0.0
2018-Feb-16 20:17N 28°08' W 015°24'0 0.0
2018-Feb-16 19:59N 28°08' W 015°24'0 0.0
2018-Feb-16 19:29N 28°08' W 015°24'0 0.0
2018-Feb-16 17:29N 28°08' W 015°24'0 0.0
2018-Feb-16 16:11N 28°08' W 015°24'0 0.0
2018-Feb-16 15:53N 28°08' W 015°24'0 0.0
2018-Feb-16 15:23N 28°08' W 015°24'0 0.0
2018-Feb-16 14:41N 28°08' W 015°24'0 0.0
2018-Feb-16 14:23N 28°08' W 015°24'0 0.0
2018-Feb-16 13:59N 28°08' W 015°24'0 0.0
2018-Feb-16 13:17N 28°08' W 015°24'0 0.0
2018-Feb-16 12:59N 28°08' W 015°24'0 0.0
2018-Feb-16 12:29N 28°08' W 015°24'0 0.0
2018-Feb-16 11:59N 28°08' W 015°24'0 0.0
2018-Feb-16 11:11N 28°08' W 015°24'0 0.0
2018-Feb-16 10:41N 28°08' W 015°24'0 0.0
2018-Feb-16 10:11N 28°08' W 015°24'0 0.0
2018-Feb-16 09:53N 28°08' W 015°24'0 0.0
2018-Feb-16 09:29N 28°08' W 015°24'0 0.0
2018-Feb-16 08:53N 28°08' W 015°24'0 0.0
2018-Feb-16 08:17N 28°08' W 015°24'0 0.0
2018-Feb-16 07:59N 28°08' W 015°24'0 0.0
2018-Feb-16 07:29N 28°08' W 015°24'0 0.0
2018-Feb-16 06:59N 28°08' W 015°24'0 0.0
2018-Feb-16 06:29N 28°08' W 015°24'0 0.0
2018-Feb-16 05:59N 28°08' W 015°24'0 0.0
2018-Feb-16 05:29N 28°08' W 015°24'0 0.0
2018-Feb-16 04:53N 28°08' W 015°24'0 0.0
2018-Feb-16 04:11N 28°08' W 015°24'0 0.0
2018-Feb-16 03:53N 28°08' W 015°24'0 0.0
2018-Feb-16 03:11N 28°08' W 015°24'0 0.0
2018-Feb-16 02:59N 28°08' W 015°24'0 0.0
2018-Feb-16 02:29N 28°08' W 015°24'0 0.0
2018-Feb-16 01:53N 28°08' W 015°24'0 0.0
2018-Feb-16 01:29N 28°08' W 015°24'0 0.0
2018-Feb-16 00:53N 28°08' W 015°24'0 0.0
2018-Feb-16 00:29N 28°08' W 015°24'0 0.0
2018-Feb-15 23:59N 28°08' W 015°24'0 0.0
2018-Feb-15 23:05N 28°08' W 015°24'0 0.1
2018-Feb-15 22:59N 28°08' W 015°24'0 0.0
2018-Feb-15 22:17N 28°08' W 015°24'0 0.0
2018-Feb-15 21:59N 28°08' W 015°24'0 0.0
2018-Feb-15 21:23N 28°08' W 015°24'0 0.0
2018-Feb-15 20:47N 28°08' W 015°24'0 0.0
2018-Feb-15 20:29N 28°08' W 015°24'0 0.0
2018-Feb-15 19:41N 28°08' W 015°24'0 0.0
2018-Feb-15 19:29N 28°08' W 015°24'0 0.0
2018-Feb-15 18:35N 28°08' W 015°24'0 0.1
2018-Feb-15 18:29N 28°08' W 015°24'0 0.0
2018-Feb-15 17:59N 28°08' W 015°24'0 0.0
2018-Feb-15 17:05N 28°08' W 015°24'0 0.0
2018-Feb-15 16:59N 28°08' W 015°24'0 0.0
2018-Feb-15 16:23N 28°08' W 015°24'0 0.0
2018-Feb-15 15:53N 28°08' W 015°24'0 0.0
2018-Feb-15 15:29N 28°08' W 015°24'0 0.0
2018-Feb-15 14:59N 28°08' W 015°24'0 0.0
2018-Feb-15 13:53N 28°08' W 015°24'0 0.0
2018-Feb-15 12:53N 28°08' W 015°24'0 0.0
2018-Feb-15 12:11N 28°08' W 015°24'0 0.0
2018-Feb-15 11:59N 28°08' W 015°24'0 0.0
2018-Feb-15 11:23N 28°08' W 015°24'0 0.0
2018-Feb-15 10:59N 28°08' W 015°24'0 0.0
2018-Feb-15 09:35N 28°08' W 015°24'0 0.0
2018-Feb-15 09:23N 28°08' W 015°24'0 0.0
2018-Feb-15 08:59N 28°08' W 015°24'0 0.0
2018-Feb-15 07:23N 28°08' W 015°24'0 0.0
2018-Feb-15 06:53N 28°08' W 015°24'0 0.0
2018-Feb-15 06:23N 28°08' W 015°24'0 0.0
2018-Feb-15 05:59N 28°08' W 015°24'0 0.0
2018-Feb-15 05:29N 28°08' W 015°24'0 0.0
2018-Feb-15 04:53N 28°08' W 015°24'0 0.0
2018-Feb-15 04:29N 28°08' W 015°24'0 0.0
2018-Feb-15 03:59N 28°08' W 015°24'0 0.0
2018-Feb-15 03:29N 28°08' W 015°24'0 0.0
2018-Feb-15 02:59N 28°08' W 015°24'0 0.0
2018-Feb-15 02:05N 28°08' W 015°24'0 0.0
2018-Feb-15 01:05N 28°08' W 015°24'0 0.0
2018-Feb-15 00:53N 28°08' W 015°24'0 0.0
2018-Feb-15 00:17N 28°08' W 015°24'0 0.0
2018-Feb-14 23:59N 28°08' W 015°24'0 0.0
2018-Feb-14 23:29N 28°08' W 015°24'0 0.0
2018-Feb-14 22:47N 28°08' W 015°24'0 0.0
2018-Feb-14 22:23N 28°08' W 015°24'0 0.0
2018-Feb-14 21:53N 28°08' W 015°24'0 0.0
2018-Feb-14 21:29N 28°08' W 015°24'0 0.0
2018-Feb-14 20:59N 28°08' W 015°24'0 0.0
2018-Feb-14 20:23N 28°08' W 015°24'0 0.0
2018-Feb-14 19:47N 28°08' W 015°24'0 0.0
2018-Feb-14 18:53N 28°08' W 015°24'0 0.0
2018-Feb-14 18:23N 28°08' W 015°24'0 0.0
2018-Feb-14 17:59N 28°08' W 015°24'0 0.0
2018-Feb-14 17:23N 28°08' W 015°24'0 0.0
2018-Feb-14 16:47N 28°08' W 015°24'0 0.0
2018-Feb-14 16:29N 28°08' W 015°24'0 0.0
2018-Feb-14 15:53N 28°08' W 015°24'0 0.0
2018-Feb-14 15:23N 28°08' W 015°24'0 0.0
2018-Feb-14 14:59N 28°08' W 015°24'0 0.0
2018-Feb-14 14:29N 28°08' W 015°24'0 0.0
2018-Feb-14 13:59N 28°08' W 015°24'0 0.0
2018-Feb-14 12:47N 28°08' W 015°24'0 0.0
2018-Feb-14 12:23N 28°08' W 015°24'0 0.0
2018-Feb-14 11:53N 28°08' W 015°24'0 0.0
2018-Feb-14 11:29N 28°08' W 015°24'0 0.0
2018-Feb-14 10:47N 28°08' W 015°24'0 0.0
2018-Feb-14 10:23N 28°08' W 015°24'0 0.0
2018-Feb-14 09:41N 28°08' W 015°24'0 0.0
2018-Feb-14 09:29N 28°08' W 015°24'0 0.0
2018-Feb-14 08:47N 28°08' W 015°24'0 0.0
2018-Feb-14 08:29N 28°08' W 015°24'0 0.0
2018-Feb-14 06:11N 28°08' W 015°24'0 0.0
2018-Feb-14 05:59N 28°08' W 015°24'0 0.0
2018-Feb-14 05:11N 28°08' W 015°24'0 0.0
2018-Feb-14 04:59N 28°08' W 015°24'0 0.0
2018-Feb-14 04:29N 28°08' W 015°24'0 0.0
2018-Feb-14 03:53N 28°08' W 015°24'0 0.0
2018-Feb-14 03:29N 28°08' W 015°24'0 0.0
2018-Feb-14 02:59N 28°08' W 015°24'0 0.0
2018-Feb-14 02:29N 28°08' W 015°24'0 0.0
2018-Feb-14 01:59N 28°08' W 015°24'0 0.0
2018-Feb-14 00:47N 28°08' W 015°24'0 0.0
2018-Feb-14 00:23N 28°08' W 015°24'0 0.0
2018-Feb-13 23:59N 28°08' W 015°24'0 0.0
2018-Feb-13 23:05N 28°08' W 015°24'0 0.1
2018-Feb-13 22:59N 28°08' W 015°24'0 0.0
2018-Feb-13 22:05N 28°08' W 015°24'0 0.0
2018-Feb-13 21:05N 28°08' W 015°24'0 0.1
2018-Feb-13 20:59N 28°08' W 015°24'0 0.0
2018-Feb-13 20:11N 28°08' W 015°24'0 0.0
2018-Feb-13 19:59N 28°08' W 015°24'0 0.0
2018-Feb-13 19:23N 28°08' W 015°24'0 0.0
2018-Feb-13 18:47N 28°08' W 015°24'0 0.0
2018-Feb-13 18:17N 28°08' W 015°24'0 0.0
2018-Feb-13 17:47N 28°08' W 015°24'0 0.0
2018-Feb-13 17:29N 28°08' W 015°24'0 0.0
2018-Feb-13 16:59N 28°08' W 015°24'0 0.0
2018-Feb-13 16:17N 28°08' W 015°24'0 0.0
2018-Feb-13 15:53N 28°08' W 015°24'0 0.0
2018-Feb-13 15:17N 28°08' W 015°24'0 0.0
2018-Feb-13 14:53N 28°08' W 015°24'0 0.0
2018-Feb-13 14:17N 28°08' W 015°24'0 0.0
2018-Feb-13 13:41N 28°08' W 015°24'0 0.0
2018-Feb-13 13:29N 28°08' W 015°24'0 0.0
2018-Feb-13 12:59N 28°08' W 015°24'0 0.0
2018-Feb-13 12:23N 28°08' W 015°24'0 0.0
2018-Feb-13 11:53N 28°08' W 015°24'0 0.0
2018-Feb-13 11:29N 28°08' W 015°24'0 0.0
2018-Feb-13 10:59N 28°08' W 015°24'0 0.0
2018-Feb-13 09:59N 28°08' W 015°24'0 0.0
2018-Feb-13 09:29N 28°08' W 015°24'0 0.0
2018-Feb-13 08:59N 28°08' W 015°24'0 0.0
2018-Feb-13 08:29N 28°08' W 015°24'0 0.0
2018-Feb-13 07:59N 28°08' W 015°24'0 0.0
2018-Feb-13 07:29N 28°08' W 015°24'0 0.0
2018-Feb-13 06:59N 28°08' W 015°24'0 0.0
2018-Feb-13 06:29N 28°08' W 015°24'0 0.0
2018-Feb-13 05:59N 28°08' W 015°24'0 0.0
2018-Feb-13 05:29N 28°08' W 015°24'0 0.0
2018-Feb-13 04:59N 28°08' W 015°24'0 0.0
2018-Feb-13 04:29N 28°08' W 015°24'0 0.0
2018-Feb-13 03:59N 28°08' W 015°24'0 0.0
2018-Feb-13 03:29N 28°08' W 015°24'0 0.0
2018-Feb-13 02:59N 28°08' W 015°24'0 0.0
2018-Feb-13 02:29N 28°08' W 015°24'0 0.0
2018-Feb-13 01:59N 28°08' W 015°24'0 0.0
2018-Feb-13 01:29N 28°08' W 015°24'0 0.0
2018-Feb-13 00:59N 28°08' W 015°24'0 0.0
2018-Feb-13 00:29N 28°08' W 015°24'0 0.0
2018-Feb-12 23:59N 28°08' W 015°24'0 0.0
2018-Feb-12 23:29N 28°08' W 015°24'0 0.0
2018-Feb-12 22:59N 28°08' W 015°24'0 0.0
2018-Feb-12 22:29N 28°08' W 015°24'0 0.0
2018-Feb-12 21:59N 28°08' W 015°24'0 0.0
2018-Feb-12 21:29N 28°08' W 015°24'0 0.0
2018-Feb-12 20:59N 28°08' W 015°24'0 0.0
2018-Feb-12 20:29N 28°08' W 015°24'0 0.0
2018-Feb-12 19:59N 28°08' W 015°24'0 0.0
2018-Feb-12 19:29N 28°08' W 015°24'0 0.0
2018-Feb-12 18:59N 28°08' W 015°24'0 0.0
2018-Feb-12 18:29N 28°08' W 015°24'0 0.0
2018-Feb-12 17:59N 28°08' W 015°24'0 0.0
2018-Feb-12 17:29N 28°08' W 015°24'0 0.0
2018-Feb-12 16:59N 28°08' W 015°24'0 0.0
2018-Feb-12 16:29N 28°08' W 015°24'0 0.0
2018-Feb-12 15:53N 28°08' W 015°24'0 0.0
2018-Feb-12 15:17N 28°08' W 015°24'0 0.0
2018-Feb-12 14:59N 28°08' W 015°24'0 0.0
2018-Feb-12 14:29N 28°08' W 015°24'0 0.0
2018-Feb-12 13:59N 28°08' W 015°24'0 0.0
2018-Feb-12 13:23N 28°08' W 015°24'0 0.0
2018-Feb-12 12:59N 28°08' W 015°24'0 0.0
2018-Feb-12 12:29N 28°08' W 015°24'0 0.0
2018-Feb-12 11:47N 28°08' W 015°24'0 0.0
2018-Feb-12 10:47N 28°08' W 015°24'0 0.0
2018-Feb-12 10:23N 28°08' W 015°24'0 0.0
2018-Feb-12 09:53N 28°08' W 015°24'0 0.0
2018-Feb-12 09:23N 28°08' W 015°24'0 0.0
2018-Feb-12 08:05N 28°08' W 015°24'0 0.0
2018-Feb-12 07:47N 28°08' W 015°24'0 0.0
2018-Feb-12 07:29N 28°08' W 015°24'0 0.0
2018-Feb-12 06:35N 28°08' W 015°24'0 0.0
2018-Feb-12 06:29N 28°08' W 015°24'0 0.0
2018-Feb-12 05:53N 28°08' W 015°24'0 0.0
2018-Feb-12 05:29N 28°08' W 015°24'0 0.0
2018-Feb-12 04:59N 28°08' W 015°24'0 0.0
2018-Feb-12 04:23N 28°08' W 015°24'0 0.0
2018-Feb-12 03:59N 28°08' W 015°24'0 0.0
2018-Feb-12 02:59N 28°08' W 015°24'  

Dump ship's entire track history